默认 日期 大小 文件数 浏览量 最新下载 xml
roommates磁力链接相关资源由用户搜索指令自动获取,结果来源于网络,本站不存储任何资料,亦不承担任何责任,请于24小时内删除,搜索到1457个磁力,用时2ms。
    {"RoomMates.gif": 128994, "RoomMates.ogv": 21122283, "RoomMates.wmv": 13043038, "Roommates_meta.xml": 981, "RoomMates_512kb.mp4": 26029706}
创建时间: 2018-12-24 11:46:58 大小:57.53 MB 文件数量:5 热度:12 最近下载:2025-01-18 09:03:02
    ... ": 36}, "Riley Steele Roommates.mkv": 8532613816, "Riley Steele Roommates a.jpg": 171919 ... , "Riley Steele Roommates b.jpg": 136653, "Riley Steele Roommates ...
创建时间: 2018-12-24 15:08:45 大小:7.95 GB 文件数量:12 热度:32 最近下载:2025-08-30 10:23:02
    {"RARBG.txt": 30, "prvs.18.03.07.bella.and.gabby.college.roommates.fuck.mp4": 1298713220, "prvs.18.03.07.bella.and.gabby.college.roommates.fuck.nfo": 5220}
创建时间: 2018-12-24 17:45:51 大小:1.21 GB 文件数量:3 热度:23 最近下载:2025-08-14 17:12:01
    ... Films - Lesbian Strap-On Fantasies Roommates With Benefits - 720p - Maxillion.mkv ...
创建时间: 2018-12-24 18:45:29 大小:2.1 GB 文件数量:7 热度:18 最近下载:2025-02-10 10:13:01
    {"0001.jpg": 187537, "0002.jpg": 201007, "0003.jpg": 196662, "0004.jpg": 151703, "0005.jpg": 198276, "0006.jpg": 174334, "0007.jpg": 204866, "0008.jpg": 197391, "0009.jpg": 182235, "0010.jpg": 194213, "0011.jpg": 187007, "0012.jpg": 186390, "0013.jpg": ...
创建时间: 2018-12-24 20:31:12 大小:153.51 MB 文件数量:882 热度:19 最近下载:2025-01-06 03:09:03
    {"DirtyMasseur - Amia Miley - My Roommates Hot Girlfriend.mp4": 302437923}
创建时间: 2018-12-24 21:19:49 大小:288.43 MB 文件数量:1 热度:21 最近下载:2025-03-04 20:03:02
    {"file_id.diz": 75, "gagball.nfo": 240, "RARBG.com.txt": 34, "r_4056780.jpg": 802816, "r_4056781.jpg": 877048, "r_4056782.jpg": 864239, "r_4056784.jpg": 818236, "r_4056785.jpg": 799437, "r_4056787.jpg": 798213, "r_4056788.jpg": 803210, "r_4056789.jpg": ...
创建时间: 2018-12-24 21:48:03 大小:78.02 MB 文件数量:115 热度:16 最近下载:2025-01-21 17:43:04
    {"tlib.14.02.12.ariana.marie.roommates.mp4": 3045800828, "tlib.14.02.12.ariana.marie.roommates.nfo": 6994, "Torrent Downloaded From ExtraTorrent.cc.nfo": 338}
创建时间: 2018-12-24 22:43:22 大小:2.84 GB 文件数量:3 热度:33 最近下载:2025-10-14 23:45:02
    {"lilalovelycrystalbluewmmp4[N1C].mp4": 2013802441}
创建时间: 2018-12-24 23:28:03 大小:1.88 GB 文件数量:1 热度:55 最近下载:2025-10-15 15:09:02
    {"poster.jpg": 28206, "screens.jpg": 180415, "RARBG.COM.txt": 33, "TeensLikeItBig.Roommates.Ariana.Marie.mp4": 535939343}
创建时间: 2018-12-25 00:04:05 大小:511.31 MB 文件数量:4 热度:13 最近下载:2024-12-25 03:22:02
    {"001.jpg": 77272, "002.jpg": 742502, "Tempting Roommates (1974).avi": 1214277632}
创建时间: 2018-12-25 01:38:49 大小:1.13 GB 文件数量:3 热度:22 最近下载:2025-10-11 18:19:03
    {" TeensLikeItBig - Ariana Marie (Roommates - 02.12.2014) - NEW February 12, 2014.avi": 409347651}
创建时间: 2018-12-25 02:38:35 大小:390.38 MB 文件数量:1 热度:13 最近下载:2024-05-19 08:24:01
    {"RARBG.to.nfo": 32, "DirtyMasseur - Amia Miley - My Roommates Hot Girlfriend.mp4": 302437923}
创建时间: 2018-12-25 07:23:50 大小:288.43 MB 文件数量:2 热度:14 最近下载:2025-02-22 04:15:01
    {"Anya Olsen.mp4": 451123801, "Nina North.mp4": 548949451, "Anny Aurora.mp4": 426392585, "Marica Hase.mp4": 432657386, "Jillian Janson.mp4": 294959149}
创建时间: 2018-12-25 09:47:38 大小:2.01 GB 文件数量:5 热度:12 最近下载:2024-09-01 13:45:02
    {"RARBG.txt": 30, "dorcelclub.18.04.18.roommates.not.so.shy.mp4": 413666689, "dorcelclub.18.04.18.roommates.not.so.shy.nfo": 5263}
创建时间: 2018-12-25 10:39:35 大小:394.51 MB 文件数量:3 热度:20 最近下载:2025-08-02 11:33:06
    {"[FirstBGG] Hazel Dew, Carry Cherry (Sexy roommates please lad - 30.03.2017) rq.mp4": 665975311}
创建时间: 2018-12-25 11:00:12 大小:635.12 MB 文件数量:1 热度:19 最近下载:2025-01-27 11:40:05
    {"RARBG.txt": 30, "BrazzersExxtra.18.10.06.Emily.Right.Randy.Roommates.XXX.SD.MP4-KLEENEX.mp4": 309830229}
创建时间: 2018-12-25 11:56:07 大小:295.48 MB 文件数量:2 热度:15 最近下载:2025-06-04 18:18:02
    {"RARBG.txt": 30, "Roommates.1995.1080p.BluRay.H264.AAC-RARBG.mp4": 2233093552}
创建时间: 2018-12-25 14:53:39 大小:2.08 GB 文件数量:2 热度:14 最近下载:2024-08-19 17:41:02
    {"ohrly.nfo": 7157, "file_id.diz": 261, "RARBG.com.txt": 34, "RARBG.COM_XXX_BANNER.jpg": 517081, "073e333be03a5c750a260b1c75336bb2.jpg": 1658428, "07b32e69c89410c3b7393c85a2d45c90.jpg": 2175582, "07c11469f425c6a5503b3cab1add0856.jpg": 1893229, " ...
创建时间: 2018-12-25 19:34:31 大小:101.66 MB 文件数量:68 热度:19 最近下载:2025-08-13 10:18:04
    {"cover.jpg": 95399, "01. Light.mp3": 12760557, "07. I Smile.mp3": 7931377, "02. Blow Away.mp3": 12000757, "05. Empty Love.mp3": 10550775, "06. On Water Wings.mp3": 5506559, "04. Black Man Guardian.mp3": 9213447, "03. Fakin' Good Manners.mp3": 12602889}
创建时间: 2018-12-25 19:49:43 大小:67.39 MB 文件数量:8 热度:9 最近下载:2023-04-15 19:40:14